KBUF/BUF METAR and TAF weather

Enter ICAO airport designator
Station Type Date Time Source
KBUF METAR 2021/03/08 01:54 UTC NOAA

KBUF 080154Z 22004KT 10SM SCT035 M04/M08 A3043 RMK AO2 SLP316 T10391083 $


Station Type Date Time Source
KBUF Decoded METAR 2021/03/08 01:54 UTC NOAA

GREATER BUFFALO INTERNATIONAL AIRPORT , NY, United States (KBUF) 42-56N 078-44W 225M
Mar 07, 2021 - 08:54 PM EST / 2021.03.08 0154 UTC
Wind: from the SW (220 degrees) at 5 MPH (4 KT):0
Visibility: 10 mile(s):0
Sky conditions: partly cloudy
Temperature: 25.0 F (-3.9 C)
Windchill: 19 F (-7 C):1
Dew Point: 17.1 F (-8.3 C)
Relative Humidity: 71%
Pressure (altimeter): 30.43 in. Hg (1030 hPa)
ob: KBUF 080154Z 22004KT 10SM SCT035 M04/M08 A3043 RMK AO2 SLP316 T10391083
cycle: 2

Station Type Date Time Source
KBUF TAF 2021/03/07 21:30 UTC NOAA

TAF
AMD KBUF 072129Z 0721/0818 23008KT P6SM BKN040 BKN070
FM072300 27006KT P6SM SCT060
FM080300 VRB03KT P6SM SKC
FM081000 19004KT P6SM FEW250
FM081400 20007KT P6SM BKN120

Example: see airport list